• Join FlightAware (Why Join?)
  • Login
  • US Flag GB Flag 
06:08 EDT


 

Airport Tracker/Info


-or-


 

Live Flight TrackerFlight Track Log ✈ DAL8943 ✈ 26-Apr-2013 ✈ KOKC - KHOU

Flight Track Log - Related Links

Times and Time Zones

All times are in EDT time to prevent confusion due to time zone crossing. See the DAL8943 flight status page for this flight to view local times or setup timezone preferences in your user account.

Time Position Orientation Groundspeed Altitude Reporting Facility
EDT Latitude Longitude Course Direction KTS MPH feet Rate Location/Type
16:25 35.3789 -97.6097 177° South 157 181 1,800  Level Fort Worth Center
16:26 35.3331 -97.6069 177° South 176 203 4,200 2,760 Climbing Fort Worth Center
16:27 35.2747 -97.6372 203° Southwest 260 299 7,200 2,880 Climbing Fort Worth Center
16:28 35.2369 -97.6550 201° Southwest 267 307 8,800 3,780 Climbing Fort Worth Center
16:28 35.2036 -97.6703 201° Southwest 278 320 11,000 2,880 Climbing Fort Worth Center
16:29 35.1683 -97.6600 167° South 300 345 11,700 2,160 Climbing Fort Worth Center
16:30 35.0764 -97.6192 160° South 327 376 14,400 2,940 Climbing Fort Worth Center
16:31 34.9828 -97.5731 158° South 348 400 17,600 2,880 Climbing Fort Worth Center
16:32 34.8828 -97.5250 158° South 373 429 20,200 2,340 Climbing Fort Worth Center
16:33 34.7806 -97.4717 157° South 391 450 22,300 2,100 Climbing Fort Worth Center
16:34 34.6719 -97.4211 159° South 404 465 24,400 1,920 Climbing Fort Worth Center
16:35 34.5572 -97.3883 167° South 417 480 26,200 1,800 Climbing Fort Worth Center
16:36 34.4403 -97.3556 167° South 427 491 28,000 1,560 Climbing Fort Worth Center
16:37 34.3214 -97.3181 165° South 438 504 29,400 1,320 Climbing Fort Worth Center
16:38 34.1983 -97.2831 167° South 449 517 30,700 1,560 Climbing Fort Worth Center
16:39 34.0667 -97.2431 166° South 445 512 32,600 1,860 Climbing Fort Worth Center
16:40 33.9458 -97.2056 166° South 445 512 34,500 1,500 Climbing Fort Worth Center
16:41 33.8247 -97.1711 167° South 450 518 35,700 1,080 Climbing Fort Worth Center
16:42 33.7036 -97.1389 168° South 450 518 36,700 1,260 Climbing Fort Worth Center
16:43 33.5844 -97.1017 165° South 450 518 38,300 1,140 Climbing Fort Worth Center
16:44 33.4694 -97.0672 166° South 437 503 39,000 300 Climbing Fort Worth Center
16:45 33.3483 -97.0331 167° South 437 503 39,000  Level Fort Worth Center
16:46 33.2272 -96.9986 167° South 443 510 39,000  Level Fort Worth Center
16:47 33.1186 -96.9669 166° South 448 516 39,000  Level Fort Worth Center
16:48 32.9828 -96.9306 167° South 453 521 39,000  Level Fort Worth Center
16:49 32.8742 -96.9039 168° South 448 516 39,000  Level Fort Worth Center
16:50 32.7406 -96.8850 173° South 448 516 39,000  Level Fort Worth Center
16:51 32.6194 -96.8881 181° South 442 509 39,000  Level Fort Worth Center
16:52 32.4961 -96.8814 177° South 437 503 39,000  Level Fort Worth Center
16:53 32.3750 -96.8747 177° South 442 509 39,000  Level Fort Worth Center
16:54 32.2539 -96.8681 177° South 437 503 39,000  Level Fort Worth Center
16:55 32.1308 -96.8614 177° South 444 511 39,000  Level Fort Worth Center
16:56 32.0075 -96.8572 178° South 444 511 39,000  Level Fort Worth Center
16:57 31.8906 -96.8481 176° South 432 497 39,000  Level Fort Worth Center
16:58 31.7694 -96.8392 176° South 437 503 39,000  Level Fort Worth Center
16:59 31.6233 -96.8253 175° South 442 509 39,000 -60 Level Houston Center
17:00 31.4986 -96.8036 172° South 446 513 38,900 -540 Descending Houston Center
17:01 31.3742 -96.7847 173° South 445 512 37,900 -1,020 Descending Houston Center
17:02 31.2486 -96.7636 172° South 447 514 36,900 -1,020 Descending Houston Center
17:03 31.1211 -96.7428 172° South 452 520 35,900 -1,140 Descending Houston Center
17:04 30.9733 -96.7194 172° South 452 520 34,600 -2,220 Descending Houston Center
17:05 30.8436 -96.6986 172° South 460 529 31,400 -3,540 Descending Houston Center
17:06 30.7153 -96.6781 172° South 457 526 27,400 -3,600 Descending Houston Center
17:07 30.5886 -96.6497 169° South 458 527 24,000 -3,180 Descending Houston Center
17:08 30.4958 -96.5519 138° Southeast 454 522 20,800 -2,760 Descending Houston Center
17:09 30.4114 -96.4508 134° Southeast 434 499 18,400 -2,520 Descending Houston Center
17:10 30.3831 -96.4206 137° Southeast 395 455 17,400 -2,760 Descending Houston Center
17:10 30.3386 -96.3644 133° Southeast 372 428 15,600 -3,000 Descending Houston Center
17:11 30.3106 -96.3294 133° Southeast 351 404 14,400 -2,340 Descending Houston Center
17:11 30.2694 -96.2814 135° Southeast 357 411 13,200 -2,280 Descending Houston Center
17:12 30.2383 -96.2431 133° Southeast 353 406 12,100 -2,160 Descending Houston Center
17:13 30.1861 -96.1919 140° Southeast 348 400 11,000 -1,080 Descending Houston Center
17:13 30.1597 -96.1819 162° South 323 372 11,000  Level Houston Center
17:14 30.1053 -96.1522 155° Southeast 334 384 11,000  Level Houston Center
17:14 30.0739 -96.1361 156° South 334 384 11,000 -240 Level Houston Center
17:15 30.0222 -96.1083 155° Southeast 330 380 10,800 -780 Descending Houston Center
17:15 29.9881 -96.0903 155° Southeast 325 374 10,200 -660 Descending Houston Center
17:16 29.9047 -96.0467 156° South 322 371 10,000 -420 Descending Houston Center
17:17 29.8608 -96.0228 155° Southeast 316 364 9,500 -1,080 Descending Houston Center
17:17 29.8336 -96.0019 146° Southeast 281 323 8,900 -1,380 Descending Houston Center
17:18 29.8031 -95.9589 129° Southeast 290 334 8,100 -1,380 Descending Houston Center
17:19 29.7469 -95.8753 128° Southeast 277 319 6,400 -1,020 Descending Houston Center
17:20 29.7011 -95.8111 129° Southeast 265 305 6,000 -240 Descending Houston Center
17:21 29.6800 -95.7333 107° East 261 300 6,000  Level Houston Center
17:22 29.6772 -95.6592 92° East 238 274 6,000 -180 Level Houston Center
17:23 29.6878 -95.5828 81° East 241 277 5,700 -780 Descending Houston Center
17:24 29.6981 -95.5128 80° East 228 262 4,500 -1,740 Descending Houston Center
17:25 29.7081 -95.4372 81° East 207 238 2,200 -1,260 Descending Houston Center
17:26 29.7156 -95.3758 82° East 199 229 2,000 -480 Descending Houston Center
17:27 29.6875 -95.3308 126° Southeast 131 151 1,200 -720 Descending Houston Center
17:28 29.6678 -95.3056 132° Southeast 144 166 600 -600 Descending Houston Center
17:29 29.6436 -95.2772 134° Southeast 129 148 100 -480 Descending Houston Center
17:31 29.6454 -95.2789 115° Southeast  Level Estimated